METAR Data
IDs: Format: Raw Decoded Include TAF

Data at: 1509 UTC 10 Aug 2022

Region: TOP
KATL 101500Z 20004KT 10SM BKN012 BKN150 BKN200 BKN250 26/22 A3023 RMK AO2 T02560222

KBOS 101454Z 08008KT 10SM SCT010 BKN022 BKN070 21/17 A3008 RMK AO2 SLP185 T02110172 57001

KBWI 101454Z VRB06KT 10SM SCT032 SCT210 31/22 A3007 RMK AO2 SLP182 T03060222 53004

KCLE 101451Z 36005KT 10SM BKN048 BKN250 23/14 A3015 RMK AO2 SLP220 T02330144 51003

KCLT 101452Z 25006KT 10SM FEW017 FEW120 SCT200 SCT250 29/22 A3019 RMK SLP211 T02890222 50004

KCVG 101452Z 25005KT 7SM BKN009 BKN017 OVC036 25/23 A3015 RMK AO2 SLP199 T02500228 51009

KDCA 101452Z 02008KT 10SM SCT041 BKN130 32/23 A3008 RMK AO2 SLP187 T03220233 51006

KDEN 101453Z 23008KT 10SM CLR 26/12 A3035 RMK AO2 SLP188 T02560122 53010 $

KDFW 101453Z 19005KT 10SM FEW095 SCT250 31/21 A3007 RMK AO2 SLP172 T03110211 50006

KDTW 101453Z 00000KT 10SM BKN030 BKN046 BKN140 24/16 A3016 RMK AO2 SLP209 T02390161 50000

KEWR 101451Z 04007KT 10SM FEW045 SCT060 28/16 A3006 RMK AO2 SLP180 T02830161 53001

KFLL 101453Z 11010KT 10SM FEW028 FEW250 32/24 A3019 RMK AO2 SLP222 T03170239 53013

KIAD 101452Z 00000KT 10SM FEW035 SCT055 SCT250 31/22 A3009 RMK AO2 SLP185 T03110222 50003

KIAH 101453Z 22003KT 10SM FEW025 SCT100 31/23 A3009 RMK AO2 SLP189 T03060233 51009

KJFK 101451Z 04007KT 10SM FEW043 BKN060 29/17 A3006 RMK AO2 SLP180 T02940172 51003

KLAS 101456Z 07005KT 10SM FEW120 FEW150 SCT220 29/18 A3008 RMK AO2 SLP159 T02890183 51017

KLAX 101453Z 25005KT 10SM FEW250 23/18 A3000 RMK AO2 SLP157 T02280178 53015 $

KLGA 101451Z 06009KT 10SM BKN060 27/16 A3005 RMK AO2 SLP177 T02670161 51001

KMCO 101453Z 17006KT 10SM SCT026 SCT300 31/23 A3021 RMK AO2 SLP228 T03060233 53009

KMDW 101453Z 30003KT 10SM FEW035 25/14 A3019 RMK AO2 SLP214 T02500139 51007

KMEM 101454Z 00000KT 10SM FEW009 BKN110 27/23 A3013 RMK AO2 SLP198 T02670228 53002

KMIA 101453Z 13008KT 10SM SCT030 BKN250 31/23 A3019 RMK AO2 SLP223 T03060233 53011

KMSP 101453Z 00000KT 10SM FEW050 25/18 A3017 RMK AO2 SLP212 T02500178 50005

KORD 101451Z 30006KT 10SM FEW035 24/16 A3019 RMK AO2 SLP218 T02440156 51006

KPDX 101453Z 16005KT 10SM BKN018 OVC025 18/13 A3005 RMK AO2 SLP173 T01830133 53014

KPHL 101454Z VRB04KT 10SM FEW038 FEW220 31/21 A3006 RMK AO2 SLP179 T03060206 51004 $

KPHX 101451Z 11006KT 10SM SCT150 BKN170 BKN210 30/19 A3000 RMK AO2 SLP137 T03000189 53013

KPIT 101451Z 01005KT 10SM OVC024 21/16 A3016 RMK AO2 SLP212 T02110161 53006

KSAN 101451Z 30004KT 10SM FEW012 SCT250 23/20 A3000 RMK AO2 SLP158 T02330200 53013

KSEA 101453Z 18007KT 10SM OVC010 17/14 A3001 RMK AO2 SLP166 T01670139 51019

KSFO 101456Z 00000KT 10SM FEW006 BKN014 18/14 A3007 RMK AO2 SLP182 T01830144 53015 $

KSLC 101454Z 19012G22KT 10SM SCT110 BKN170 BKN230 28/13 A3022 RMK AO2 SLP166 VIRGA ACC ALQDS T02830133 53020

KSTL 101504Z 02006KT 10SM SCT015 BKN043 25/19 A3019 RMK AO2 T02500194

KTPA 101453Z 13008KT 10SM SCT020 BKN280 31/24 A3020 RMK AO2 SLP227 T03060244 53013